Главная страница
METAR-TAF:

METAR-TAF

Аэропорты :

Джинна

Карачи, Пакистан

широта: 24-54N, долгота: 067-08E, высота над уровнем моря: 21 м

Текущие метеонаблюдения

Эта сводка был подготовлена 37 минут назад, в 15:21 UTC
Ветер 6 Узел от юго-западный
Температура 28°C
Влажность 45%
Давление 1013 hPa
Видимость: 5000 м
небольшая облачность на высоте 3000 фута
Отдельные облака на высоте 10000 фута
мгла

METAR: OPKC 241521Z 23006KT 5000 HZ FEW030 SCT100 28/15 Q1013 NOSIG

Время: 20:58 (15:58 UTC)

Прогноз

Эта сводка был подготовлена 3 часа и 28 минут назад, в 12:30 UTC
Прогноз действительный с 24-го 15 UTC до 24-го 24 UTC
Ветер 10 Узел от западный
Видимость: 6000 м
Отдельные облака на высоте 3000 фута
Рассеянная облачность на высоте 10000 фута

TAF: OPKC 241230Z 2415/2424 28010KT 6000 SCT030 BKN100

Метеонаблюдения и прогнозы для более 4000 аэропортов (сводки METAR и TAF).

Имеющиеся станции представлены на карте желтыми и красными точками.

Чтобы увидеть название станции, наведите на нее мышь.

Затем щелкните, чтобы увидеть метеонаблюдения и метеопрогнозы.

Управление картой: чтобы увеличить масштаб, щелкните зеленые кнопки с черным крестиком; чтобы уменьшить масштаб, щелкните зеленую кнопку с тире; для просмотра соседних карт щелкайте зеленые стрелки.


METAR-TAF: